Accueil
METAR-TAF:

METAR-TAF

Aéroports :

Bergerac, France

Aéroport de Bergerac-Dordogne-Périgord

latitude: 44-49N, longitude: 000-31E, altitude: 51 m

Observation

Le bulletin a été fait il y a 16 minutes, à 21:00 UTC
Vent calme
Température -6°C
Humidité 93%
Pression 1028 hPa
Visibilité: 6000 m

METAR: LFBE 192100Z AUTO 00000KT 6000 NSC M06/M07 Q1028 NOSIG

Heure: 22:16 (21:16 UTC)

Prévision

Le bulletin a été fait il y a 4 heures et 16 minutes, à 17:00 UTC
Prévision valable du 19 à 18 UTC au 20 à 18 UTC
Vent 2 kt de direction variable
Visibilité 10 km ou plus
pas de nuages en-dessous de 1500 mètres et pas de cumulonimbus.

TAF: LFBE 191700Z 1918/2018 VRB02KT CAVOK

Observations et prévisions météorologiques de plus de 4000 aéroports (messages METAR et TAF).

Les stations disponibles sont représentées par des disques jaunes et rouges sur la carte.

Passer la souris dessus pour voir le nom de la station.

Cliquer dessus pour voir les observations et prévisions météorologiques.

Pour changer de carte: cliquez sur les boutons verts avec une croix noire pour zoomer, sur le bouton vert avec un tiret pour effectuer un zoom arrière, ou sur les flèches vertes pour les cartes adjacentes.


METAR-TAF: